createdAt,value
2019-05-16T00:00:25.098Z,6.40
2019-05-16T00:03:08.012Z,6.30
2019-05-16T00:05:54.182Z,6.30
2019-05-16T00:08:31.561Z,6.30
2019-05-16T00:11:12.172Z,6.30
2019-05-16T00:13:53.759Z,6.30
2019-05-16T00:16:34.695Z,6.30
2019-05-16T00:19:18.064Z,6.20
2019-05-16T00:21:58.457Z,6.20
2019-05-16T00:24:39.985Z,6.10
2019-05-16T00:27:21.460Z,6.10
2019-05-16T00:30:02.236Z,6.10
2019-05-16T00:32:43.043Z,6.00
2019-05-16T00:35:24.692Z,6.00
2019-05-16T00:38:08.656Z,5.90
2019-05-16T00:40:48.825Z,5.90
2019-05-16T00:43:29.644Z,5.80
2019-05-16T00:46:10.969Z,5.80
2019-05-16T00:48:52.246Z,5.80
2019-05-16T00:51:33.256Z,5.80
2019-05-16T00:54:14.538Z,5.80
2019-05-16T00:56:57.796Z,5.90
2019-05-16T00:59:38.562Z,5.90
2019-05-16T01:02:19.281Z,5.90
2019-05-16T01:05:00.741Z,5.90
2019-05-16T01:07:41.845Z,5.90
2019-05-16T01:10:22.840Z,5.90
2019-05-16T01:13:04.412Z,5.90
2019-05-16T01:15:48.400Z,5.80
2019-05-16T01:18:28.876Z,5.80
2019-05-16T01:21:10.171Z,5.70
2019-05-16T01:23:52.073Z,5.70
2019-05-16T01:26:33.403Z,5.70
2019-05-16T01:29:15.200Z,5.60
2019-05-16T01:31:58.836Z,5.60
2019-05-16T01:34:39.436Z,5.60
2019-05-16T01:37:20.164Z,5.60
2019-05-16T01:40:01.641Z,5.60
2019-05-16T01:42:41.217Z,5.60
2019-05-16T01:45:29.685Z,5.60
2019-05-16T01:48:19.172Z,5.50
2019-05-16T01:51:08.449Z,5.50
2019-05-16T01:53:58.037Z,5.50
2019-05-16T01:56:48.204Z,5.50
2019-05-16T01:59:38.482Z,5.50
2019-05-16T02:02:28.794Z,5.50
2019-05-16T02:05:18.776Z,5.40
2019-05-16T02:08:08.864Z,5.40
2019-05-16T02:10:58.424Z,5.40
2019-05-16T02:13:48.442Z,5.40
2019-05-16T02:16:38.427Z,5.40
2019-05-16T02:19:28.009Z,5.50
2019-05-16T02:22:17.919Z,5.50
2019-05-16T02:25:07.941Z,5.40
2019-05-16T02:27:58.836Z,5.40
2019-05-16T02:30:42.096Z,5.30
2019-05-16T02:33:21.889Z,5.30
2019-05-16T02:39:11.275Z,5.20
2019-05-16T02:41:52.030Z,5.20
2019-05-16T02:44:33.426Z,5.10
2019-05-16T02:47:14.176Z,5.20
2019-05-16T02:49:55.592Z,5.20
2019-05-16T02:52:36.897Z,5.20
2019-05-16T02:55:17.608Z,5.20
2019-05-16T02:58:00.816Z,5.20
2019-05-16T03:00:42.839Z,5.20
2019-05-16T03:03:23.871Z,5.20
2019-05-16T03:06:05.546Z,5.20
2019-05-16T03:08:46.847Z,5.20
2019-05-16T03:11:31.247Z,5.30
2019-05-16T03:14:11.188Z,5.30
2019-05-16T03:16:51.976Z,5.40
2019-05-16T03:19:33.515Z,5.40
2019-05-16T03:22:14.205Z,5.40
2019-05-16T03:24:56.004Z,5.40
2019-05-16T03:27:37.277Z,5.40
2019-05-16T03:30:23.457Z,5.40
2019-05-16T03:33:04.893Z,5.40
2019-05-16T03:35:44.627Z,5.40
2019-05-16T03:38:25.552Z,5.40
2019-05-16T03:41:06.398Z,5.40
2019-05-16T03:43:50.516Z,5.40
2019-05-16T03:46:31.047Z,5.50
2019-05-16T03:49:12.089Z,5.40
2019-05-16T03:51:53.728Z,5.40
2019-05-16T03:54:34.614Z,5.40
2019-05-16T03:57:15.473Z,5.50
2019-05-16T03:59:56.946Z,5.50
2019-05-16T04:02:37.601Z,5.50
2019-05-16T04:08:25.790Z,5.60
2019-05-16T04:11:06.689Z,5.70
2019-05-16T04:13:47.385Z,5.70
2019-05-16T04:16:31.041Z,5.80
2019-05-16T04:22:31.805Z,5.90
2019-05-16T04:25:12.340Z,6.00
2019-05-16T04:27:53.298Z,6.10
2019-05-16T04:33:53.421Z,6.00
2019-05-16T04:36:34.722Z,6.30
2019-05-16T04:39:15.528Z,6.40
2019-05-16T04:41:57.103Z,6.40
2019-05-16T04:48:00.223Z,6.50
2019-05-16T04:50:41.907Z,6.60
2019-05-16T04:53:22.305Z,6.50
2019-05-16T04:56:03.581Z,6.60
2019-05-16T04:58:44.760Z,6.70
2019-05-16T05:01:25.945Z,6.80
2019-05-16T05:04:14.130Z,6.90
2019-05-16T05:10:00.290Z,7.10
2019-05-16T05:12:40.972Z,7.10
2019-05-16T05:15:22.322Z,7.10
2019-05-16T05:18:03.880Z,7.10
2019-05-16T05:20:45.228Z,7.20
2019-05-16T05:23:26.777Z,7.20
2019-05-16T05:26:10.592Z,7.30
2019-05-16T05:28:51.159Z,7.50
2019-05-16T05:34:40.429Z,7.70
2019-05-16T05:37:21.764Z,7.70
2019-05-16T05:40:03.290Z,8.00
2019-05-16T05:42:44.819Z,7.70
2019-05-16T05:45:26.388Z,7.80
2019-05-16T05:48:10.540Z,7.90
2019-05-16T05:50:40.170Z,8.00
2019-05-16T05:53:47.270Z,7.90
2019-05-16T05:56:35.737Z,8.10
2019-05-16T05:59:24.237Z,8.10
2019-05-16T06:01:53.655Z,8.20
2019-05-16T06:04:42.152Z,8.20
2019-05-16T06:07:30.628Z,8.00
2019-05-16T06:10:00.530Z,8.20
2019-05-16T06:12:50.318Z,8.30
2019-05-16T06:15:40.014Z,8.40
2019-05-16T06:18:30.599Z,8.60
2019-05-16T06:21:20.434Z,8.70
2019-05-16T06:27:00.794Z,8.70
2019-05-16T06:29:41.926Z,8.90
2019-05-16T06:32:23.451Z,8.90
2019-05-16T06:35:05.071Z,8.90
2019-05-16T06:37:45.688Z,8.90
2019-05-16T06:40:26.463Z,9.00
2019-05-16T06:43:07.849Z,9.20
2019-05-16T06:45:51.007Z,9.30
2019-05-16T06:48:31.758Z,9.10
2019-05-16T06:51:13.163Z,9.30
2019-05-16T06:57:02.295Z,9.30
2019-05-16T06:59:44.236Z,9.50
2019-05-16T07:02:30.638Z,9.40
2019-05-16T07:05:10.026Z,9.60
2019-05-16T07:07:51.091Z,9.60
2019-05-16T07:10:32.748Z,9.80
2019-05-16T07:13:14.203Z,9.70
2019-05-16T07:15:56.024Z,10.00
2019-05-16T07:18:39.604Z,10.30
2019-05-16T07:21:20.576Z,10.30
2019-05-16T07:24:02.339Z,10.50
2019-05-16T07:26:43.982Z,10.30
2019-05-16T07:29:25.142Z,10.50
2019-05-16T07:32:06.525Z,10.90
2019-05-16T07:34:49.692Z,11.40
2019-05-16T07:37:31.585Z,11.20
2019-05-16T07:40:22.973Z,11.30
2019-05-16T07:42:43.838Z,11.80
2019-05-16T07:45:32.338Z,12.00
2019-05-16T07:48:21.781Z,11.70
2019-05-16T07:51:10.949Z,12.30
2019-05-16T07:53:40.651Z,12.00
2019-05-16T07:56:31.076Z,11.70
2019-05-16T07:59:20.441Z,11.90
2019-05-16T08:02:11.006Z,11.80
2019-05-16T08:05:00.760Z,12.00
2019-05-16T08:07:51.261Z,11.80
2019-05-16T08:10:45.562Z,11.80
2019-05-16T08:13:30.842Z,11.70
2019-05-16T08:16:20.809Z,11.90
2019-05-16T08:19:10.770Z,12.00
2019-05-16T08:22:01.459Z,12.10
2019-05-16T08:24:51.259Z,12.00
2019-05-16T08:27:41.411Z,11.80
2019-05-16T08:30:22.353Z,11.70
2019-05-16T08:33:03.692Z,11.80
2019-05-16T08:35:44.387Z,12.10
2019-05-16T08:38:25.961Z,12.40
2019-05-16T08:41:12.879Z,12.10
2019-05-16T08:43:53.279Z,12.10
2019-05-16T08:46:32.529Z,12.40
2019-05-16T08:49:13.229Z,12.40
2019-05-16T08:51:54.175Z,12.30
2019-05-16T08:54:35.101Z,12.70
2019-05-16T09:00:01.319Z,13.20
2019-05-16T09:02:42.338Z,13.20
2019-05-16T09:05:23.392Z,13.20
2019-05-16T09:08:04.984Z,13.30
2019-05-16T09:10:59.083Z,13.30
2019-05-16T09:13:29.279Z,13.10
2019-05-16T09:16:10.273Z,13.00
2019-05-16T09:18:38.365Z,12.90
2019-05-16T09:18:51.425Z,13.50
2019-05-16T09:21:32.363Z,14.30
2019-05-16T09:24:01.782Z,14.20
2019-05-16T09:26:50.285Z,14.00
2019-05-16T09:29:31.176Z,14.20
2019-05-16T09:32:20.331Z,14.10
2019-05-16T09:34:57.400Z,14.60
2019-05-16T09:37:37.866Z,13.80
2019-05-16T09:40:19.019Z,13.60
2019-05-16T09:42:59.983Z,13.90
2019-05-16T09:48:47.738Z,14.70
2019-05-16T09:51:28.665Z,14.50
2019-05-16T09:54:09.714Z,14.70
2019-05-16T09:56:51.248Z,14.20
2019-05-16T09:59:32.943Z,13.70
2019-05-16T10:02:17.429Z,13.80
2019-05-16T10:04:58.373Z,13.90
2019-05-16T10:07:40.205Z,14.30
2019-05-16T10:10:20.972Z,14.50
2019-05-16T10:13:01.701Z,14.90
2019-05-16T10:15:31.115Z,14.80
2019-05-16T10:18:19.608Z,14.30
2019-05-16T10:21:08.334Z,14.30
2019-05-16T10:23:58.239Z,15.00
2019-05-16T10:26:53.457Z,15.20
2019-05-16T10:29:29.952Z,15.20
2019-05-16T10:32:10.891Z,15.20
2019-05-16T10:34:51.879Z,15.50
2019-05-16T10:37:32.751Z,15.50
2019-05-16T10:40:02.220Z,15.20
2019-05-16T10:42:50.725Z,15.30
2019-05-16T10:45:39.323Z,14.80
2019-05-16T10:48:27.804Z,14.90
2019-05-16T10:51:16.988Z,15.00
2019-05-16T10:54:13.576Z,15.10
2019-05-16T10:56:57.641Z,14.90
2019-05-16T11:00:04.156Z,14.40
2019-05-16T11:02:37.677Z,14.60
2019-05-16T11:05:33.620Z,15.10
2019-05-16T11:08:16.548Z,15.00
2019-05-16T11:11:06.750Z,15.20
2019-05-16T11:13:55.478Z,15.60
2019-05-16T11:16:43.967Z,15.60
2019-05-16T11:23:07.901Z,16.30
2019-05-16T11:34:51.767Z,15.40
2019-05-16T11:37:32.833Z,15.50
2019-05-16T11:40:13.668Z,15.50
2019-05-16T11:43:09.190Z,16.80
2019-05-16T11:45:46.686Z,17.20
2019-05-16T11:48:29.508Z,16.80
2019-05-16T11:51:09.816Z,16.30
2019-05-16T11:53:51.323Z,16.30
2019-05-16T11:56:32.681Z,16.40
2019-05-16T11:59:13.489Z,16.50
2019-05-16T12:01:54.686Z,16.40
2019-05-16T12:04:37.468Z,16.50
2019-05-16T12:07:19.370Z,16.50
2019-05-16T12:10:00.496Z,16.50
2019-05-16T12:12:41.915Z,16.10
2019-05-16T12:15:23.601Z,15.80
2019-05-16T12:18:05.883Z,16.00
2019-05-16T12:20:47.204Z,16.00
2019-05-16T12:23:28.604Z,16.00
2019-05-16T12:26:09.606Z,16.30
2019-05-16T12:28:51.163Z,17.00
2019-05-16T12:31:32.631Z,17.30
2019-05-16T12:34:13.333Z,16.70
2019-05-16T12:36:56.483Z,16.00
2019-05-16T12:39:37.924Z,16.20
2019-05-16T12:42:18.969Z,16.50
2019-05-16T12:45:00.055Z,17.00
2019-05-16T12:47:41.051Z,17.30
2019-05-16T12:50:22.208Z,17.10
2019-05-16T12:53:02.876Z,17.20
2019-05-16T12:55:42.476Z,17.10
2019-05-16T12:58:37.722Z,16.80
2019-05-16T13:01:21.606Z,16.00
2019-05-16T13:04:12.629Z,15.60
2019-05-16T13:07:01.373Z,15.60
2019-05-16T13:09:50.375Z,15.60
2019-05-16T13:12:40.323Z,16.00
2019-05-16T13:15:30.279Z,16.50
2019-05-16T13:18:18.756Z,16.10
2019-05-16T13:21:07.277Z,16.70
2019-05-16T13:23:57.570Z,17.10
2019-05-16T13:26:47.637Z,17.40
2019-05-16T13:29:29.306Z,17.80
2019-05-16T13:32:10.693Z,17.60
2019-05-16T13:34:51.426Z,17.20
2019-05-16T13:37:32.441Z,17.10
2019-05-16T13:40:02.285Z,17.20
2019-05-16T13:42:50.737Z,17.00
2019-05-16T13:49:10.112Z,17.20
2019-05-16T13:51:58.588Z,17.10
2019-05-16T13:54:47.095Z,17.00
2019-05-16T13:57:37.444Z,17.10
2019-05-16T14:00:27.927Z,17.00
2019-05-16T14:03:17.960Z,17.00
2019-05-16T14:06:07.211Z,16.90
2019-05-16T14:08:56.896Z,17.20
2019-05-16T14:11:46.471Z,17.50
2019-05-16T14:14:41.925Z,17.60
2019-05-16T14:17:27.526Z,17.30
2019-05-16T14:20:18.240Z,16.90
2019-05-16T14:23:08.480Z,16.90
2019-05-16T14:25:57.769Z,17.40
2019-05-16T14:28:48.852Z,17.10
2019-05-16T14:31:37.689Z,17.10
2019-05-16T14:34:27.883Z,17.10
2019-05-16T14:37:17.735Z,17.10
2019-05-16T14:40:28.147Z,17.20
2019-05-16T14:43:17.226Z,17.20
2019-05-16T14:46:09.582Z,17.40
2019-05-16T14:48:57.266Z,17.20
2019-05-16T14:51:47.679Z,16.90
2019-05-16T14:54:37.768Z,16.90
2019-05-16T14:57:27.393Z,17.20
2019-05-16T15:00:18.121Z,17.30
2019-05-16T15:02:47.952Z,16.90
2019-05-16T15:05:42.284Z,17.00
2019-05-16T15:08:26.650Z,17.30
2019-05-16T15:11:17.831Z,17.00
2019-05-16T15:14:07.074Z,17.00
2019-05-16T15:16:54.144Z,17.30
2019-05-16T15:19:42.892Z,17.10
2019-05-16T15:22:31.392Z,16.80
2019-05-16T15:25:19.915Z,16.80
2019-05-16T15:28:08.403Z,16.80
2019-05-16T15:30:39.404Z,16.80
2019-05-16T15:33:09.040Z,16.80
2019-05-16T15:35:38.475Z,16.80
2019-05-16T15:38:08.253Z,16.90
2019-05-16T15:40:37.937Z,17.10
2019-05-16T15:43:08.244Z,16.90
2019-05-16T15:45:44.176Z,16.80
2019-05-16T15:48:13.202Z,16.80
2019-05-16T15:50:44.310Z,16.70
2019-05-16T15:53:13.708Z,16.50
2019-05-16T15:55:43.877Z,16.80
2019-05-16T15:58:13.405Z,16.50
2019-05-16T16:00:47.657Z,16.40
2019-05-16T16:03:17.577Z,16.50
2019-05-16T16:05:47.184Z,16.60
2019-05-16T16:08:18.208Z,16.60
2019-05-16T16:10:48.050Z,16.50
2019-05-16T16:13:19.766Z,16.50
2019-05-16T16:15:53.603Z,16.30
2019-05-16T16:18:21.765Z,16.30
2019-05-16T16:20:50.997Z,16.40
2019-05-16T16:23:20.714Z,16.50
2019-05-16T16:25:51.286Z,16.20
2019-05-16T16:28:21.143Z,16.10
2019-05-16T16:30:50.560Z,16.00
2019-05-16T16:33:25.789Z,15.80
2019-05-16T16:35:51.015Z,15.80
2019-05-16T16:38:20.407Z,15.70
2019-05-16T16:40:49.834Z,15.90
2019-05-16T16:43:19.528Z,15.80
2019-05-16T16:45:48.905Z,15.80
2019-05-16T16:48:18.339Z,15.70
2019-05-16T16:50:48.344Z,15.80
2019-05-16T16:53:17.797Z,15.60
2019-05-16T16:55:47.766Z,15.60
2019-05-16T16:58:17.672Z,15.60
2019-05-16T17:00:47.902Z,15.70
2019-05-16T17:03:17.378Z,15.70
2019-05-16T17:05:46.783Z,15.60
2019-05-16T17:08:16.791Z,15.60
2019-05-16T17:10:47.664Z,15.60
2019-05-16T17:13:17.239Z,15.50
2019-05-16T17:15:47.310Z,15.40
2019-05-16T17:18:17.463Z,15.50
2019-05-16T17:20:47.743Z,15.40
2019-05-16T17:23:17.602Z,15.50
2019-05-16T17:25:47.278Z,15.30
2019-05-16T17:28:17.379Z,15.30
2019-05-16T17:30:47.305Z,15.30
2019-05-16T17:33:18.140Z,15.30
2019-05-16T17:35:48.966Z,15.30
2019-05-16T17:38:19.045Z,15.30
2019-05-16T17:40:48.591Z,15.20
2019-05-16T17:43:18.292Z,15.30
2019-05-16T17:45:48.262Z,15.30
2019-05-16T17:48:17.831Z,15.30
2019-05-16T17:50:47.376Z,15.10
2019-05-16T17:53:17.489Z,15.10
2019-05-16T17:55:47.233Z,15.10
2019-05-16T17:58:17.193Z,15.10
2019-05-16T18:00:47.347Z,15.00
2019-05-16T18:03:17.372Z,15.00
2019-05-16T18:05:47.480Z,14.90
2019-05-16T18:08:17.228Z,14.90
2019-05-16T18:10:47.139Z,14.90
2019-05-16T18:13:17.043Z,14.70
2019-05-16T18:15:47.337Z,14.70
2019-05-16T18:18:17.781Z,14.60
2019-05-16T18:20:55.828Z,14.50
2019-05-16T18:23:19.029Z,14.60
2019-05-16T18:25:48.414Z,14.60
2019-05-16T18:28:17.829Z,14.60
2019-05-16T18:30:47.410Z,14.60
2019-05-16T18:33:17.145Z,14.60
2019-05-16T18:35:46.824Z,14.60
2019-05-16T18:38:16.237Z,14.50
2019-05-16T18:40:47.322Z,14.50
2019-05-16T18:43:16.849Z,14.50
2019-05-16T18:45:47.234Z,14.50
2019-05-16T18:48:16.680Z,14.40
2019-05-16T18:50:47.713Z,14.40
2019-05-16T18:53:17.793Z,14.30
2019-05-16T18:55:47.341Z,14.30
2019-05-16T18:58:18.003Z,14.40
2019-05-16T19:00:47.544Z,14.40
2019-05-16T19:03:16.986Z,14.30
2019-05-16T19:05:46.404Z,14.40
2019-05-16T19:08:16.433Z,14.40
2019-05-16T19:10:47.373Z,14.40
2019-05-16T19:13:17.497Z,14.40
2019-05-16T19:15:49.314Z,14.30
2019-05-16T19:18:18.384Z,14.30
2019-05-16T19:20:48.978Z,14.30
2019-05-16T19:23:18.586Z,14.20
2019-05-16T19:25:48.010Z,14.20
2019-05-16T19:28:17.485Z,14.20
2019-05-16T19:30:47.079Z,14.20
2019-05-16T19:33:17.449Z,14.20
2019-05-16T19:35:48.977Z,14.20
2019-05-16T19:38:18.469Z,14.20
2019-05-16T19:40:47.886Z,14.00
2019-05-16T19:43:18.958Z,13.90
2019-05-16T19:45:48.411Z,13.70
2019-05-16T19:48:18.165Z,13.60
2019-05-16T19:50:47.590Z,13.50
2019-05-16T19:53:17.352Z,13.40
2019-05-16T19:55:47.131Z,13.20
2019-05-16T19:58:16.718Z,13.00
2019-05-16T20:00:46.637Z,12.80
2019-05-16T20:03:16.681Z,12.60
2019-05-16T20:05:47.571Z,12.40
2019-05-16T20:08:17.598Z,12.10
2019-05-16T20:10:47.702Z,12.00
2019-05-16T20:13:17.145Z,11.90
2019-05-16T20:15:47.135Z,11.80
2019-05-16T20:18:18.534Z,11.70
2019-05-16T20:20:48.376Z,11.60
2019-05-16T20:23:18.760Z,11.50
2019-05-16T20:25:48.603Z,11.40
2019-05-16T20:28:18.562Z,11.30
2019-05-16T20:30:48.590Z,11.30
2019-05-16T20:33:18.276Z,11.20
2019-05-16T20:35:47.867Z,11.20
2019-05-16T20:38:17.538Z,11.10
2019-05-16T20:40:46.958Z,11.10
2019-05-16T20:43:16.975Z,11.10
2019-05-16T20:45:47.674Z,11.10
2019-05-16T20:48:18.599Z,11.10
2019-05-16T20:50:49.155Z,11.10
2019-05-16T20:53:19.002Z,11.00
2019-05-16T20:55:49.568Z,11.00
2019-05-16T20:58:19.209Z,11.00
2019-05-16T21:00:49.738Z,11.00
2019-05-16T21:03:19.289Z,10.90
2019-05-16T21:05:48.709Z,10.90
2019-05-16T21:08:18.112Z,10.90
2019-05-16T21:10:47.838Z,10.90
2019-05-16T21:13:17.366Z,10.90
2019-05-16T21:15:47.692Z,10.90
2019-05-16T21:18:17.528Z,10.90
2019-05-16T21:20:47.279Z,10.90
2019-05-16T21:23:19.483Z,11.00
2019-05-16T21:25:48.544Z,10.90
2019-05-16T21:28:19.750Z,10.90
2019-05-16T21:30:49.649Z,10.70
2019-05-16T21:33:19.083Z,10.70
2019-05-16T21:35:48.748Z,10.60
2019-05-16T21:38:18.176Z,10.60
2019-05-16T21:40:47.583Z,10.60
2019-05-16T21:43:17.318Z,10.50
2019-05-16T21:45:47.527Z,10.50
2019-05-16T21:48:19.397Z,10.50
2019-05-16T21:50:48.012Z,10.40
2019-05-16T21:53:17.816Z,10.40
2019-05-16T21:55:48.015Z,10.40
2019-05-16T21:58:17.810Z,10.20
2019-05-16T22:00:50.068Z,10.20
2019-05-16T22:03:19.609Z,10.30
2019-05-16T22:05:49.379Z,10.30
2019-05-16T22:08:18.772Z,10.30
2019-05-16T22:10:48.558Z,10.30
2019-05-16T22:13:18.252Z,10.30
2019-05-16T22:15:47.667Z,10.30
2019-05-16T22:18:17.094Z,10.30
2019-05-16T22:20:49.047Z,10.30
2019-05-16T22:23:17.818Z,10.40
2019-05-16T22:25:49.248Z,10.30
2019-05-16T22:28:19.091Z,10.30
2019-05-16T22:30:49.597Z,10.30
2019-05-16T22:33:18.998Z,10.20
2019-05-16T22:35:49.535Z,10.10
2019-05-16T22:38:19.404Z,10.20
2019-05-16T22:40:48.828Z,10.10
2019-05-16T22:43:18.600Z,10.10
2019-05-16T22:45:48.269Z,10.00
2019-05-16T22:48:17.675Z,9.90
2019-05-16T22:50:47.303Z,9.90
2019-05-16T22:53:17.203Z,9.90
2019-05-16T22:55:47.765Z,9.90
2019-05-16T22:58:17.290Z,9.90
2019-05-16T23:00:47.071Z,9.80
2019-05-16T23:03:17.398Z,9.80
2019-05-16T23:05:47.376Z,9.80
2019-05-16T23:08:16.886Z,9.80
2019-05-16T23:10:46.252Z,9.70
2019-05-16T23:13:16.955Z,9.70
2019-05-16T23:15:46.599Z,9.60
2019-05-16T23:18:17.219Z,9.50
2019-05-16T23:20:47.414Z,9.50
2019-05-16T23:23:17.380Z,9.40
2019-05-16T23:25:46.947Z,9.50
2019-05-16T23:28:16.700Z,9.50
2019-05-16T23:30:47.113Z,9.50
2019-05-16T23:33:16.571Z,9.50
2019-05-16T23:35:46.850Z,9.50
2019-05-16T23:38:19.664Z,9.50
2019-05-16T23:40:47.477Z,9.40
2019-05-16T23:43:16.878Z,9.40
2019-05-16T23:45:46.930Z,9.40
2019-05-16T23:48:16.562Z,9.40
2019-05-16T23:50:47.454Z,9.40
2019-05-16T23:53:16.982Z,9.30
2019-05-16T23:55:47.164Z,9.20
2019-05-16T23:58:16.570Z,9.20
